Météo Nord-Pas-de-Calais   La météo au plus près de chez vous

Station météorologique

Observations météo à Houdelaincourt (55248)

55248001 390 m Dernier relevé à 07:00
15.8°C
Humidité 87 % Vent 10.1 km/h 1021.3 hPa

Journée consultée

Samedi 5 Septembre 2026

Synthèse de la journée

Périodes de référence en UTC

Température maximale

29°C

à 16:00

06h 06h

Température minimale

15.8°C

à 07:00

18h 18h

Rafale maximale

30 km/h

à 02:48

00h 00h

Précipitations

0 mm

Cumul quotidien

06h 06h

Ensoleillement

0h 0 mins

Durée quotidienne

00h 00h

Graphiques de la journée

Heure locale Réduire

Données détaillées

Relevés météo

Pas de 6 minutes Afficher les relevés infra-horaires
Relevés météo détaillés à Houdelaincourt pour le Samedi 5 Septembre 2026
Heure Température °C Point de rosée °C Humidité % Vent moyen (raf.), km/h Précipitations mm Ensoleillement min Rayonnement global W/m² Pression hPa
07:00 15.8 °C 14 °C 89 % 8 km/h (12 km/h) 0 mm0 mm 0 min 0 W/m² 1021.7 hPa
06:54 15.9 °C 14.1 °C 89 % 9 km/h (14 km/h) 0 mm0 mm 0 min 0 W/m² 1021.6 hPa
06:48 15.9 °C 13.9 °C 88 % 11 km/h (17 km/h) 0 mm0 mm 0 min 0 W/m² 1021.6 hPa
06:42 16 °C 14 °C 88 % 14 km/h (18 km/h) 0 mm0 mm 0 min 0 W/m² 1021.6 hPa
06:36 16 °C 14 °C 88 % 13 km/h (17 km/h) 0 mm0 mm 0 min 0 W/m² 1021.5 hPa
06:30 16 °C 13.8 °C 87 % 12 km/h (17 km/h) 0 mm0 mm 0 min 0 W/m² 1021.5 hPa
06:24 16 °C 13.8 °C 87 % 12 km/h (17 km/h) 0 mm0 mm 0 min 0 W/m² 1021.5 hPa
06:18 16 °C 13.8 °C 87 % 11 km/h (15 km/h) 0 mm0 mm 0 min 0 W/m² 1021.3 hPa
06:12 16.1 °C 13.9 °C 87 % 12 km/h (17 km/h) 0 mm0 mm 0 min 0 W/m² 1021.3 hPa
06:06 16.1 °C 13.9 °C 87 % 12 km/h (18 km/h) 0 mm0 mm 0 min 0 W/m² 1021.3 hPa
06:00 16.1 °C 13.9 °C 87 % 10 km/h (14 km/h) 0 mm0 mm 0 min 0 W/m² 1021.3 hPa
05:54 16.1 °C 13.8 °C 86 % 11 km/h (14 km/h) 0 mm0 mm 0 min 0 W/m² 1021.3 hPa
05:48 16.1 °C 13.8 °C 86 % 12 km/h (18 km/h) 0 mm0 mm 0 min 0 W/m² 1021.2 hPa
05:42 16.2 °C 13.9 °C 86 % 14 km/h (22 km/h) 0 mm0 mm 0 min 0 W/m² 1021.1 hPa
05:36 16.2 °C 13.7 °C 85 % 14 km/h (22 km/h) 0 mm0 mm 0 min 0 W/m² 1021.1 hPa
05:30 16.2 °C 13.7 °C 85 % 13 km/h (17 km/h) 0 mm0 mm 0 min 0 W/m² 1021 hPa
05:24 16.2 °C 13.7 °C 85 % 11 km/h (16 km/h) 0 mm0 mm 0 min 0 W/m² 1021.1 hPa
05:18 16.2 °C 13.7 °C 85 % 9 km/h (14 km/h) 0 mm0 mm 0 min 0 W/m² 1021 hPa
05:12 16.1 °C 13.8 °C 86 % 6 km/h (10 km/h) 0 mm0 mm 0 min 0 W/m² 1020.9 hPa
05:06 16.1 °C 13.8 °C 86 % 5 km/h (6 km/h) 0 mm0 mm 0 min 0 W/m² 1020.8 hPa
05:00 16.2 °C 13.5 °C 84 % 5 km/h (8 km/h) 0 mm0 mm 0 min 0 W/m² 1020.7 hPa
04:54 16.3 °C 13.6 °C 84 % 7 km/h (11 km/h) 0 mm0 mm 0 min 0 W/m² 1020.6 hPa
04:48 16.3 °C 13.6 °C 84 % 8 km/h (13 km/h) 0 mm0 mm 0 min 0 W/m² 1020.6 hPa
04:42 16.3 °C 13.4 °C 83 % 9 km/h (14 km/h) 0 mm0 mm 0 min 0 W/m² 1020.6 hPa
04:36 16.4 °C 13.5 °C 83 % 10 km/h (14 km/h) 0 mm0 mm 0 min 0 W/m² 1020.5 hPa
04:30 16.5 °C 13.4 °C 82 % 10 km/h (16 km/h) 0 mm0 mm 0 min 0 W/m² 1020.4 hPa
04:24 16.6 °C 13.5 °C 82 % 12 km/h (18 km/h) 0 mm0 mm 0 min 0 W/m² 1020.5 hPa
04:18 16.7 °C 13.4 °C 81 % 13 km/h (18 km/h) 0 mm0 mm 0 min 0 W/m² 1020.6 hPa
04:12 16.7 °C 13.2 °C 80 % 10 km/h (17 km/h) 0 mm0 mm 0 min 0 W/m² 1020.5 hPa
04:06 16.8 °C 13.7 °C 82 % 12 km/h (19 km/h) 0 mm0 mm 0 min 0 W/m² 1020.2 hPa
04:00 16.9 °C 13.8 °C 82 % 12 km/h (19 km/h) 0 mm0 mm 0 min 0 W/m² 1020.3 hPa
03:54 16.9 °C 14.5 °C 86 % 10 km/h (15 km/h) 0 mm0 mm 0 min 0 W/m² 1020.2 hPa
03:48 17 °C 15.9 °C 93 % 10 km/h (16 km/h) 0 mm0 mm 0 min 0 W/m² 1020.2 hPa
03:42 17 °C 16 °C 94 % 11 km/h (16 km/h) 0 mm0 mm 0 min 0 W/m² 1020.4 hPa
03:36 17 °C 16 °C 94 % 9 km/h (14 km/h) 0 mm0 mm 0 min 0 W/m² 1020.4 hPa
03:30 17 °C 15.9 °C 93 % 9 km/h (14 km/h) 0 mm0 mm 0 min 0 W/m² 1020.3 hPa
03:24 17 °C 15.9 °C 93 % 9 km/h (14 km/h) 0 mm0 mm 0 min 0 W/m² 1020.3 hPa
03:18 17 °C 15.9 °C 93 % 10 km/h (16 km/h) 0 mm0 mm 0 min 0 W/m² 1020.1 hPa
03:12 17 °C 15.7 °C 92 % 12 km/h (19 km/h) 0 mm0 mm 0 min 0 W/m² 1020 hPa
03:06 17 °C 15.7 °C 92 % 14 km/h (19 km/h) 0 mm0 mm 0 min 0 W/m² 1020.1 hPa
03:00 17 °C 15.5 °C 91 % 16 km/h (26 km/h) 0 mm0 mm 0 min 0 W/m² 1020 hPa
02:54 17.2 °C 15.5 °C 90 % 21 km/h (30 km/h) 0 mm0 mm 0 min 0 W/m² 1020 hPa
02:48 17.7 °C 15.3 °C 86 % 21 km/h (30 km/h) 0 mm0 mm 0 min 0 W/m² 1020.1 hPa
02:42 18 °C 15.4 °C 85 % 17 km/h (29 km/h) 0 mm0 mm 0 min 0 W/m² 1020 hPa
02:36 18 °C 15.4 °C 85 % 14 km/h (21 km/h) 0 mm0 mm 0 min 0 W/m² 1020 hPa
02:30 18.1 °C 15.5 °C 85 % 13 km/h (21 km/h) 0 mm0 mm 0 min 0 W/m² 1020 hPa
02:24 18.1 °C 15.9 °C 87 % 13 km/h (19 km/h) 0 mm0 mm 0 min 0 W/m² 1020 hPa
02:18 18.2 °C 16 °C 87 % 13 km/h (21 km/h) 0 mm0 mm 0 min 0 W/m² 1019.9 hPa
02:12 18.2 °C 16 °C 87 % 13 km/h (19 km/h) 0 mm0 mm 0 min 0 W/m² 1019.7 hPa
02:06 18.2 °C 16 °C 87 % 14 km/h (24 km/h) 0 mm0 mm 0 min 0 W/m² 1019.8 hPa
02:00 18.3 °C 16.1 °C 87 % 17 km/h (26 km/h) 0 mm0 mm 0 min 0 W/m² 1019.8 hPa
01:54 18.3 °C 16.1 °C 87 % 21 km/h (33 km/h) 0 mm0 mm 0 min 0 W/m² 1019.7 hPa
01:48 18.6 °C 16.2 °C 86 % 25 km/h (38 km/h) 0 mm0 mm 0 min 0 W/m² 1019.7 hPa
01:42 18.9 °C 16.5 °C 86 % 24 km/h (41 km/h) 0 mm0 mm 0 min 0 W/m² 1019.7 hPa
01:36 19.4 °C 16.8 °C 85 % 21 km/h (28 km/h) 0 mm0 mm 0 min 0 W/m² 1019.7 hPa
01:30 19.5 °C 16.7 °C 84 % 20 km/h (29 km/h) 0 mm0 mm 0 min 0 W/m² 1019.5 hPa
01:24 19.6 °C 16.8 °C 84 % 18 km/h (26 km/h) 0 mm0 mm 0 min 0 W/m² 1019.4 hPa
01:18 19.6 °C 16.6 °C 83 % 19 km/h (30 km/h) 0 mm0 mm 0 min 0 W/m² 1019.3 hPa
01:12 19.7 °C 16.7 °C 83 % 21 km/h (30 km/h) 0 mm0 mm 0 min 0 W/m² 1019.2 hPa
01:06 19.7 °C 16.5 °C 82 % 21 km/h (30 km/h) 0 mm0 mm 0 min 0 W/m² 1019.2 hPa
01:00 19.7 °C 16.5 °C 82 % 20 km/h (30 km/h) 0 mm0 mm 0 min 0 W/m² 1019.1 hPa
00:54 19.8 °C 16.4 °C 81 % 20 km/h (29 km/h) 0 mm0 mm 0 min 0 W/m² 1019.1 hPa
00:48 20 °C 16.4 °C 80 % 22 km/h (30 km/h) 0 mm0 mm 0 min 0 W/m² 1019.1 hPa
00:42 20.2 °C 16 °C 77 % 20 km/h (29 km/h) 0 mm0 mm 0 min 0 W/m² 1018.9 hPa
00:36 20.5 °C 15.7 °C 74 % 17 km/h (27 km/h) 0 mm0 mm 0 min 0 W/m² 1018.9 hPa
00:30 20.6 °C 15.4 °C 72 % 17 km/h (26 km/h) 0 mm0 mm 0 min 0 W/m² 1018.7 hPa
00:24 20.8 °C 15.3 °C 71 % 18 km/h (26 km/h) 0 mm0 mm 0 min 0 W/m² 1018.6 hPa
00:18 20.9 °C 15.4 °C 71 % 17 km/h (27 km/h) 0 mm0 mm 0 min 0 W/m² 1018.4 hPa
00:12 20.9 °C 15.2 °C 70 % 18 km/h (27 km/h) 0 mm0 mm 0 min 0 W/m² 1018.4 hPa
00:06 21 °C 15.3 °C 70 % 19 km/h (27 km/h) 0 mm0 mm 0 min 0 W/m² 1018.3 hPa
00:00 21.1 °C 15.2 °C 69 % 21 km/h (30 km/h) 0 mm0 mm 0 min 0 W/m² 1018.2 hPa

Données via Météo-France

Relevés météo à Houdelaincourt

Cette page rassemble les observations de la station de Houdelaincourt : température, humidité, vent, précipitations et pression atmosphérique. Les graphiques facilitent le suivi de la journée, tandis que le tableau donne accès aux mesures horaires et infra-horaires disponibles.

Pour replacer ces mesures dans leur contexte, consultez la climatologie de Houdelaincourt. Retrouvez aussi la carte des observations météo en temps réel.